Bremen — C6JC3 — position and weather

sailwx.info

Track history (hours):
 
Tides and Currents Weather Stations Pressure Air Temp Water Temp Dewpoint Dewpoint Depression Visibility Wind Speed Wind Dir Waves Ship Positions

Bremen

Operator: Hapag-Lloyd Container Line

Last reported at 2017-Mar-23 08:33 UTC. Time now 2017-Mar-30 14:38 UTC.
Position S 22°23' E 166°41'.

Length 111.5 m; beam 17 m; draft 4.8 m.

Type: Ship. MMSI: 308429000.

Date/timePositionNaut miles runAvg speedWind from/ knotsBaromVisibWave heightAir tempDewpointWater temp
2017-Mar-23 08:33S 22°23' E 166°41'1413.7
2017-Mar-23 07:33S 22°19' E 166°26'3 2.8
2017-Mar-23 06:28S 22°16' E 166°26'0 0.0
2017-Mar-23 05:31S 22°16' E 166°26'0 0.0
2017-Mar-23 04:31S 22°16' E 166°26'0 0.0
2017-Mar-23 03:28S 22°16' E 166°26'0 0.0
2017-Mar-23 02:31S 22°16' E 166°26'0 0.0
2017-Mar-23 01:28S 22°16' E 166°26'0 0.0
2017-Mar-23 00:31S 22°16' E 166°26'0 0.0
2017-Mar-22 23:31S 22°16' E 166°26'0 0.0
2017-Mar-22 22:31S 22°16' E 166°26'0 0.0
2017-Mar-22 21:31S 22°16' E 166°26'0 0.0
2017-Mar-22 20:31S 22°16' E 166°26'0 0.0
2017-Mar-22 19:31S 22°16' E 166°26'0 0.0
2017-Mar-22 18:31S 22°16' E 166°26'0 0.0
2017-Mar-22 17:32S 22°16' E 166°26'0 0.0
2017-Mar-22 16:29S 22°16' E 166°26'0 0.0
2017-Mar-22 15:32S 22°16' E 166°26'0 0.0
2017-Mar-22 14:32S 22°16' E 166°26'0 0.0
2017-Mar-22 13:29S 22°16' E 166°26'0 0.0
2017-Mar-22 12:32S 22°16' E 166°26'0 0.0
2017-Mar-22 11:29S 22°16' E 166°26'0 0.0
2017-Mar-22 10:32S 22°16' E 166°26'0 0.0
2017-Mar-22 09:32S 22°16' E 166°26'0 0.0
2017-Mar-22 08:32S 22°16' E 166°26'0 0.0
2017-Mar-22 07:33S 22°16' E 166°26'0 0.0
2017-Mar-22 06:33S 22°16' E 166°26'0 0.0
2017-Mar-22 05:33S 22°16' E 166°26'0 0.0
2017-Mar-22 04:34S 22°16' E 166°26'8 7.6
2017-Mar-22 03:33S 22°21' E 166°32'24 0.7
2017-Mar-20 17:19S 22°27' E 166°57'  
2017-Mar-16 10:33S 36°14' E 174°60'1111.0
2017-Mar-16 09:33S 36°25' E 174°60'1110.7
2017-Mar-16 08:33S 36°35' E 174°57'1110.4
2017-Mar-16 07:33S 36°44' E 174°50'7 6.5
2017-Mar-16 06:29S 36°50' E 174°46'0 0.0
2017-Mar-16 05:29S 36°50' E 174°46'0 0.0
2017-Mar-16 04:29S 36°50' E 174°46'0 0.0
2017-Mar-16 03:29S 36°50' E 174°46'0 0.0
2017-Mar-16 02:29S 36°50' E 174°46'0 0.0
2017-Mar-16 01:31S 36°50' E 174°46'0 0.0
2017-Mar-16 00:31S 36°50' E 174°46'0 0.0
2017-Mar-15 21:31S 36°50' E 174°46'0 0.0
2017-Mar-15 20:19S 36°50' E 174°46'0 0.0
2017-Mar-15 19:31S 36°50' E 174°46'0 0.0
2017-Mar-15 18:31S 36°50' E 174°46'0 0.0
2017-Mar-15 17:31S 36°50' E 174°46'0 0.3
2017-Mar-15 16:29S 36°50' E 174°47'6 6.4
2017-Mar-15 15:33S 36°45' E 174°50'10 9.2
2017-Mar-15 14:29S 36°37' E 174°58'9 9.8
2017-Mar-15 13:33S 36°31' E 175°06'80 2.6
2017-Mar-14 06:33S 37°31' E 176°11'5 5.4
2017-Mar-14 05:33S 37°37' E 176°10'2 1.8
2017-Mar-14 04:33S 37°39' E 176°11'0 0.0
2017-Mar-14 02:31S 37°39' E 176°11'0 0.0
2017-Mar-14 01:07S 37°39' E 176°11'0 0.0
2017-Mar-14 00:26S 37°39' E 176°11'0 0.0
2017-Mar-13 23:20S 37°39' E 176°11'0 0.0
2017-Mar-13 22:30S 37°39' E 176°11'0 0.0
2017-Mar-13 21:25S 37°39' E 176°11'0 0.0
2017-Mar-13 19:06S 37°39' E 176°11'0 0.0
2017-Mar-13 17:31S 37°39' E 176°11'0 0.0
2017-Mar-13 16:15S 37°39' E 176°11'0 0.0
2017-Mar-13 15:27S 37°39' E 176°11'0 0.0
2017-Mar-13 13:33S 37°39' E 176°11'0 0.0
2017-Mar-13 12:30S 37°39' E 176°11'0 0.0
2017-Mar-13 11:30S 37°39' E 176°11'0 0.0
2017-Mar-13 10:31S 37°39' E 176°11'  
Track history (hours):
 
Tides and Currents Weather Stations Pressure Air Temp Water Temp Dewpoint Dewpoint Depression Visibility Wind Speed Wind Dir Waves Ship Positions

Bremen

Operator: Hapag-Lloyd Container Line

Last reported at 2017-Mar-23 08:33 UTC. Time now 2017-Mar-30 14:38 UTC.
Position S 22°23' E 166°41'.

Length 111.5 m; beam 17 m; draft 4.8 m.

Type: Ship. MMSI: 308429000.

Date/timePositionNaut miles runAvg speedWind from/ knotsBaromVisibWave heightAir tempDewpointWater temp
2017-Mar-23 08:33S 22°23' E 166°41'1413.7
2017-Mar-23 07:33S 22°19' E 166°26'3 2.8
2017-Mar-23 06:28S 22°16' E 166°26'0 0.0
2017-Mar-23 05:31S 22°16' E 166°26'0 0.0
2017-Mar-23 04:31S 22°16' E 166°26'0 0.0
2017-Mar-23 03:28S 22°16' E 166°26'0 0.0
2017-Mar-23 02:31S 22°16' E 166°26'0 0.0
2017-Mar-23 01:28S 22°16' E 166°26'0 0.0
2017-Mar-23 00:31S 22°16' E 166°26'0 0.0
2017-Mar-22 23:31S 22°16' E 166°26'0 0.0
2017-Mar-22 22:31S 22°16' E 166°26'0 0.0
2017-Mar-22 21:31S 22°16' E 166°26'0 0.0
2017-Mar-22 20:31S 22°16' E 166°26'0 0.0
2017-Mar-22 19:31S 22°16' E 166°26'0 0.0
2017-Mar-22 18:31S 22°16' E 166°26'0 0.0
2017-Mar-22 17:32S 22°16' E 166°26'0 0.0
2017-Mar-22 16:29S 22°16' E 166°26'0 0.0
2017-Mar-22 15:32S 22°16' E 166°26'0 0.0
2017-Mar-22 14:32S 22°16' E 166°26'0 0.0
2017-Mar-22 13:29S 22°16' E 166°26'0 0.0
2017-Mar-22 12:32S 22°16' E 166°26'0 0.0
2017-Mar-22 11:29S 22°16' E 166°26'0 0.0
2017-Mar-22 10:32S 22°16' E 166°26'0 0.0
2017-Mar-22 09:32S 22°16' E 166°26'0 0.0
2017-Mar-22 08:32S 22°16' E 166°26'0 0.0
2017-Mar-22 07:33S 22°16' E 166°26'0 0.0
2017-Mar-22 06:33S 22°16' E 166°26'0 0.0
2017-Mar-22 05:33S 22°16' E 166°26'0 0.0
2017-Mar-22 04:34S 22°16' E 166°26'8 7.6
2017-Mar-22 03:33S 22°21' E 166°32'24 0.7
2017-Mar-20 17:19S 22°27' E 166°57'  
2017-Mar-16 10:33S 36°14' E 174°60'1111.0
2017-Mar-16 09:33S 36°25' E 174°60'1110.7
2017-Mar-16 08:33S 36°35' E 174°57'1110.4
2017-Mar-16 07:33S 36°44' E 174°50'7 6.5
2017-Mar-16 06:29S 36°50' E 174°46'0 0.0
2017-Mar-16 05:29S 36°50' E 174°46'0 0.0
2017-Mar-16 04:29S 36°50' E 174°46'0 0.0
2017-Mar-16 03:29S 36°50' E 174°46'0 0.0
2017-Mar-16 02:29S 36°50' E 174°46'0 0.0
2017-Mar-16 01:31S 36°50' E 174°46'0 0.0
2017-Mar-16 00:31S 36°50' E 174°46'0 0.0
2017-Mar-15 21:31S 36°50' E 174°46'0 0.0
2017-Mar-15 20:19S 36°50' E 174°46'0 0.0
2017-Mar-15 19:31S 36°50' E 174°46'0 0.0
2017-Mar-15 18:31S 36°50' E 174°46'0 0.0
2017-Mar-15 17:31S 36°50' E 174°46'0 0.3
2017-Mar-15 16:29S 36°50' E 174°47'6 6.4
2017-Mar-15 15:33S 36°45' E 174°50'10 9.2
2017-Mar-15 14:29S 36°37' E 174°58'9 9.8
2017-Mar-15 13:33S 36°31' E 175°06'80 2.6
2017-Mar-14 06:33S 37°31' E 176°11'5 5.4
2017-Mar-14 05:33S 37°37' E 176°10'2 1.8
2017-Mar-14 04:33S 37°39' E 176°11'0 0.0
2017-Mar-14 02:31S 37°39' E 176°11'0 0.0
2017-Mar-14 01:07S 37°39' E 176°11'0 0.0
2017-Mar-14 00:26S 37°39' E 176°11'0 0.0
2017-Mar-13 23:20S 37°39' E 176°11'0 0.0
2017-Mar-13 22:30S 37°39' E 176°11'0 0.0
2017-Mar-13 21:25S 37°39' E 176°11'0 0.0
2017-Mar-13 19:06S 37°39' E 176°11'0 0.0
2017-Mar-13 17:31S 37°39' E 176°11'0 0.0
2017-Mar-13 16:15S 37°39' E 176°11'0 0.0
2017-Mar-13 15:27S 37°39' E 176°11'0 0.0
2017-Mar-13 13:33S 37°39' E 176°11'0 0.0
2017-Mar-13 12:30S 37°39' E 176°11'0 0.0
2017-Mar-13 11:30S 37°39' E 176°11'0 0.0
2017-Mar-13 10:31S 37°39' E 176°11'  

Dump ship's entire track history